createdAt,value
2017-08-30T00:01:59.242Z,22.90
2017-08-30T00:04:26.753Z,22.90
2017-08-30T00:06:54.297Z,22.90
2017-08-30T00:09:21.815Z,22.90
2017-08-30T00:11:49.316Z,22.80
2017-08-30T00:14:16.864Z,22.80
2017-08-30T00:16:44.383Z,22.60
2017-08-30T00:19:11.879Z,22.70
2017-08-30T00:21:39.727Z,22.60
2017-08-30T00:24:07.246Z,22.70
2017-08-30T00:26:34.749Z,22.70
2017-08-30T00:29:02.321Z,22.80
2017-08-30T00:31:29.838Z,22.80
2017-08-30T00:33:57.335Z,22.80
2017-08-30T00:36:24.875Z,22.80
2017-08-30T00:38:52.385Z,22.80
2017-08-30T00:41:19.902Z,22.70
2017-08-30T00:43:47.446Z,22.60
2017-08-30T00:46:14.959Z,22.70
2017-08-30T00:48:42.480Z,22.70
2017-08-30T00:51:10.007Z,22.70
2017-08-30T00:53:37.526Z,22.60
2017-08-30T00:56:05.037Z,22.60
2017-08-30T00:58:32.583Z,22.60
2017-08-30T01:01:00.077Z,22.40
2017-08-30T01:03:27.602Z,22.40
2017-08-30T01:05:55.154Z,22.30
2017-08-30T01:08:22.656Z,22.30
2017-08-30T01:10:50.151Z,22.30
2017-08-30T01:13:17.702Z,22.40
2017-08-30T01:15:45.214Z,22.50
2017-08-30T01:18:12.726Z,22.50
2017-08-30T01:20:40.347Z,22.60
2017-08-30T01:23:07.848Z,22.60
2017-08-30T01:25:35.343Z,22.50
2017-08-30T01:28:02.891Z,22.50
2017-08-30T01:30:31.151Z,22.60
2017-08-30T01:32:58.653Z,22.60
2017-08-30T01:35:26.179Z,22.60
2017-08-30T01:37:53.675Z,22.60
2017-08-30T01:40:21.252Z,22.50
2017-08-30T01:42:48.780Z,22.40
2017-08-30T01:45:16.282Z,22.40
2017-08-30T01:47:43.804Z,22.40
2017-08-30T01:50:11.336Z,22.30
2017-08-30T01:52:38.892Z,22.30
2017-08-30T01:55:06.400Z,22.30
2017-08-30T01:57:33.923Z,22.30
2017-08-30T02:00:01.428Z,22.10
2017-08-30T02:02:28.946Z,22.00
2017-08-30T02:04:56.476Z,21.80
2017-08-30T02:07:23.976Z,21.50
2017-08-30T02:09:51.480Z,21.40
2017-08-30T02:12:19.034Z,21.30
2017-08-30T02:14:46.553Z,21.20
2017-08-30T02:17:14.056Z,21.30
2017-08-30T02:19:42.357Z,21.30
2017-08-30T02:22:09.878Z,21.20
2017-08-30T02:24:37.371Z,21.30
2017-08-30T02:27:04.925Z,21.30
2017-08-30T02:29:32.440Z,21.30
2017-08-30T02:31:59.955Z,21.30
2017-08-30T02:34:27.488Z,21.30
2017-08-30T02:36:54.994Z,21.30
2017-08-30T02:39:22.515Z,21.50
2017-08-30T02:41:50.063Z,21.50
2017-08-30T02:44:18.346Z,21.40
2017-08-30T02:46:45.840Z,21.40
2017-08-30T02:49:13.378Z,21.50
2017-08-30T02:51:40.936Z,21.40
2017-08-30T02:54:09.201Z,21.10
2017-08-30T02:56:36.735Z,21.10
2017-08-30T02:59:04.255Z,21.00
2017-08-30T03:01:31.769Z,20.80
2017-08-30T03:03:59.302Z,20.70
2017-08-30T03:06:26.830Z,20.60
2017-08-30T03:08:54.351Z,20.50
2017-08-30T03:11:21.902Z,20.30
2017-08-30T03:13:49.408Z,20.20
2017-08-30T03:16:16.926Z,20.10
2017-08-30T03:18:44.459Z,20.00
2017-08-30T03:21:11.968Z,19.80
2017-08-30T03:23:39.491Z,19.80
2017-08-30T03:26:07.098Z,19.70
2017-08-30T03:28:34.602Z,19.60
2017-08-30T03:31:02.131Z,19.50
2017-08-30T03:33:29.669Z,19.50
2017-08-30T03:35:57.216Z,19.50
2017-08-30T03:38:24.721Z,19.40
2017-08-30T03:40:52.348Z,19.30
2017-08-30T03:43:19.866Z,19.20
2017-08-30T03:45:47.388Z,19.20
2017-08-30T03:48:14.948Z,19.00
2017-08-30T03:50:42.474Z,19.00
2017-08-30T03:53:09.980Z,18.80
2017-08-30T03:55:37.527Z,18.70
2017-08-30T03:58:05.032Z,18.60
2017-08-30T04:00:32.545Z,18.60
2017-08-30T04:03:00.098Z,18.50
2017-08-30T04:05:27.614Z,18.50
2017-08-30T04:07:55.128Z,18.50
2017-08-30T04:10:22.674Z,18.40
2017-08-30T04:12:50.176Z,18.40
2017-08-30T04:15:17.675Z,18.30
2017-08-30T04:17:45.226Z,18.20
2017-08-30T04:20:12.745Z,18.10
2017-08-30T04:22:40.270Z,18.10
2017-08-30T04:25:07.808Z,18.10
2017-08-30T04:27:35.308Z,18.00
2017-08-30T04:30:02.816Z,18.00
2017-08-30T04:32:30.363Z,17.90
2017-08-30T04:34:57.883Z,17.80
2017-08-30T04:37:25.496Z,17.80
2017-08-30T04:39:53.027Z,17.80
2017-08-30T04:42:20.532Z,17.80
2017-08-30T04:44:48.040Z,17.70
2017-08-30T04:47:15.571Z,17.70
2017-08-30T04:49:43.086Z,17.70
2017-08-30T04:52:10.598Z,17.80
2017-08-30T04:54:38.203Z,17.80
2017-08-30T04:57:05.840Z,17.80
2017-08-30T04:59:33.339Z,17.90
2017-08-30T05:02:00.869Z,17.90
2017-08-30T05:04:28.390Z,18.00
2017-08-30T05:06:55.893Z,18.00
2017-08-30T05:09:23.430Z,18.10
2017-08-30T05:11:51.015Z,18.10
2017-08-30T05:14:18.533Z,18.10
2017-08-30T05:16:46.828Z,18.30
2017-08-30T05:19:14.350Z,18.30
2017-08-30T05:21:41.868Z,18.40
2017-08-30T05:24:09.428Z,18.60
2017-08-30T05:26:36.932Z,18.70
2017-08-30T05:29:04.453Z,18.80
2017-08-30T05:31:32.001Z,18.80
2017-08-30T05:33:59.514Z,18.90
2017-08-30T05:36:27.015Z,19.00
2017-08-30T05:38:54.548Z,19.10
2017-08-30T05:41:22.824Z,19.30
2017-08-30T05:43:50.347Z,19.30
2017-08-30T05:46:17.875Z,19.40
2017-08-30T05:48:45.394Z,19.50
2017-08-30T05:51:12.942Z,19.70
2017-08-30T05:53:40.462Z,19.80
2017-08-30T05:56:07.965Z,19.90
2017-08-30T05:58:35.487Z,19.90
2017-08-30T06:01:02.987Z,20.00
2017-08-30T06:03:30.540Z,20.10
2017-08-30T06:05:58.066Z,20.20
2017-08-30T06:08:25.600Z,20.30
2017-08-30T06:10:53.099Z,20.50
2017-08-30T06:13:20.617Z,20.50
2017-08-30T06:15:48.151Z,20.70
2017-08-30T06:18:15.670Z,20.80
2017-08-30T06:20:43.214Z,20.90
2017-08-30T06:23:10.849Z,21.10
2017-08-30T06:25:38.383Z,21.40
2017-08-30T06:28:06.652Z,22.00
2017-08-30T06:30:34.963Z,22.30
2017-08-30T06:33:02.465Z,22.30
2017-08-30T06:35:29.968Z,22.80
2017-08-30T06:37:57.492Z,23.30
2017-08-30T06:40:25.773Z,24.60
2017-08-30T06:42:53.335Z,24.60
2017-08-30T06:45:20.835Z,24.90
2017-08-30T06:47:48.390Z,25.00
2017-08-30T06:50:15.891Z,25.20
2017-08-30T06:52:43.397Z,25.40
2017-08-30T06:55:10.928Z,25.40
2017-08-30T06:57:39.210Z,25.50
2017-08-30T07:00:06.730Z,25.50
2017-08-30T07:02:34.254Z,25.70
2017-08-30T07:05:01.770Z,25.60
2017-08-30T07:07:29.291Z,25.50
2017-08-30T07:09:56.829Z,25.70
2017-08-30T07:12:24.362Z,26.10
2017-08-30T07:14:52.675Z,27.30
2017-08-30T07:17:20.180Z,27.30
2017-08-30T07:19:47.688Z,28.00
2017-08-30T07:22:15.216Z,28.50
2017-08-30T07:24:42.724Z,29.10
2017-08-30T07:27:10.356Z,29.60
2017-08-30T07:29:37.874Z,30.00
2017-08-30T07:32:05.376Z,30.80
2017-08-30T07:34:32.922Z,31.40
2017-08-30T07:37:00.444Z,31.80
2017-08-30T07:39:27.979Z,32.60
2017-08-30T07:41:55.500Z,32.40
2017-08-30T07:44:23.065Z,32.70
2017-08-30T07:46:50.600Z,33.30
2017-08-30T07:49:18.114Z,33.60
2017-08-30T07:51:45.635Z,33.80
2017-08-30T07:54:13.234Z,33.90
2017-08-30T07:56:40.736Z,33.90
2017-08-30T07:59:08.282Z,34.90
2017-08-30T08:01:35.785Z,35.90
2017-08-30T08:04:03.303Z,36.40
2017-08-30T08:06:31.611Z,36.80
2017-08-30T08:08:59.107Z,36.80
2017-08-30T08:11:26.628Z,36.10
2017-08-30T08:13:54.185Z,36.50
2017-08-30T08:16:21.735Z,36.40
2017-08-30T08:18:49.258Z,35.20
2017-08-30T08:21:16.773Z,35.00
2017-08-30T08:23:44.311Z,35.10
2017-08-30T08:26:11.812Z,35.40
2017-08-30T08:28:39.337Z,35.60
2017-08-30T08:31:06.895Z,35.60
2017-08-30T08:33:34.415Z,35.90
2017-08-30T08:36:01.953Z,35.50
2017-08-30T08:38:29.474Z,35.70
2017-08-30T08:40:56.995Z,35.70
2017-08-30T08:43:24.496Z,35.80
2017-08-30T08:45:52.004Z,35.40
2017-08-30T08:48:19.536Z,35.20
2017-08-30T08:50:47.055Z,34.70
2017-08-30T08:53:14.583Z,34.10
2017-08-30T08:55:42.134Z,33.20
2017-08-30T08:58:09.646Z,33.00
2017-08-30T09:00:37.157Z,32.30
2017-08-30T09:03:04.680Z,31.70
2017-08-30T09:05:32.179Z,31.30
2017-08-30T09:07:59.707Z,30.40
2017-08-30T09:10:27.208Z,29.70
2017-08-30T09:12:54.715Z,29.30
2017-08-30T09:15:22.269Z,29.00
2017-08-30T09:17:49.794Z,29.00
2017-08-30T09:20:17.317Z,28.70
2017-08-30T09:22:44.862Z,28.80
2017-08-30T09:25:12.375Z,28.90
2017-08-30T09:27:39.891Z,28.90
2017-08-30T09:30:07.438Z,29.00
2017-08-30T09:32:34.943Z,28.90
2017-08-30T09:35:02.454Z,28.80
2017-08-30T09:37:29.973Z,28.70
2017-08-30T09:39:57.476Z,28.60
2017-08-30T09:42:25.007Z,28.70
2017-08-30T09:44:52.651Z,28.60
2017-08-30T09:47:20.171Z,28.90
2017-08-30T09:49:47.700Z,28.90
2017-08-30T09:52:15.220Z,28.80
2017-08-30T09:54:42.724Z,29.20
2017-08-30T09:57:10.266Z,29.30
2017-08-30T09:59:37.771Z,29.80
2017-08-30T10:02:05.360Z,30.80
2017-08-30T10:04:32.884Z,32.00
2017-08-30T10:07:00.392Z,33.20
2017-08-30T10:09:27.924Z,34.20
2017-08-30T10:11:55.428Z,35.50
2017-08-30T10:14:22.932Z,36.50
2017-08-30T10:16:50.460Z,36.20
2017-08-30T10:19:18.067Z,35.90
2017-08-30T10:21:45.560Z,36.10
2017-08-30T10:24:13.111Z,37.10
2017-08-30T10:26:40.946Z,37.90
2017-08-30T10:29:08.448Z,39.30
2017-08-30T10:31:35.980Z,40.60
2017-08-30T10:34:03.490Z,39.90
2017-08-30T10:36:31.002Z,40.00
2017-08-30T10:38:58.535Z,39.40
2017-08-30T10:41:26.042Z,38.50
2017-08-30T10:43:53.547Z,40.10
2017-08-30T10:46:21.075Z,41.10
2017-08-30T10:48:48.586Z,41.60
2017-08-30T10:51:16.122Z,41.80
2017-08-30T10:53:43.692Z,42.50
2017-08-30T10:56:11.214Z,42.50
2017-08-30T10:58:39.495Z,40.80
2017-08-30T11:01:07.023Z,40.80
2017-08-30T11:03:34.539Z,39.00
2017-08-30T11:06:02.059Z,38.20
2017-08-30T11:08:30.364Z,36.80
2017-08-30T11:10:57.867Z,36.80
2017-08-30T11:13:25.399Z,36.20
2017-08-30T11:15:52.950Z,36.10
2017-08-30T11:18:20.522Z,36.10
2017-08-30T11:20:48.039Z,36.40
2017-08-30T11:23:16.370Z,36.30
2017-08-30T11:25:43.894Z,36.30
2017-08-30T11:28:11.395Z,36.80
2017-08-30T11:30:39.036Z,36.80
2017-08-30T11:33:06.562Z,37.90
2017-08-30T11:35:34.096Z,38.50
2017-08-30T11:38:01.642Z,38.30
2017-08-30T11:40:29.263Z,37.50
2017-08-30T11:42:56.776Z,37.30
2017-08-30T11:45:24.316Z,36.30
2017-08-30T11:47:51.840Z,35.40
2017-08-30T11:50:19.359Z,35.00
2017-08-30T11:52:46.891Z,34.80
2017-08-30T11:55:14.415Z,34.40
2017-08-30T11:57:41.942Z,34.30
2017-08-30T12:00:09.531Z,34.10
2017-08-30T12:02:37.032Z,35.40
2017-08-30T12:05:04.550Z,37.20
2017-08-30T12:07:32.079Z,39.00
2017-08-30T12:09:59.598Z,41.00
2017-08-30T12:12:27.104Z,40.20
2017-08-30T12:14:54.667Z,40.30
2017-08-30T12:17:22.172Z,40.60
2017-08-30T12:19:49.682Z,41.90
2017-08-30T12:22:17.224Z,43.80
2017-08-30T12:24:44.749Z,44.20
2017-08-30T12:27:12.251Z,43.50
2017-08-30T12:29:39.802Z,43.70
2017-08-30T12:32:07.322Z,43.20
2017-08-30T12:34:34.844Z,43.80
2017-08-30T12:37:08.120Z,44.00
2017-08-30T12:39:38.580Z,42.90
2017-08-30T12:42:06.084Z,41.70
2017-08-30T12:44:33.638Z,40.80
2017-08-30T12:47:01.140Z,40.30
2017-08-30T12:49:28.640Z,40.80
2017-08-30T12:51:56.183Z,41.20
2017-08-30T12:54:23.709Z,41.60
2017-08-30T12:56:51.235Z,41.40
2017-08-30T12:59:18.768Z,41.80
2017-08-30T13:01:46.282Z,42.00
2017-08-30T13:04:13.797Z,41.60
2017-08-30T13:06:41.328Z,41.20
2017-08-30T13:09:08.868Z,41.20
2017-08-30T13:11:36.387Z,39.30
2017-08-30T13:14:03.935Z,39.00
2017-08-30T13:16:31.454Z,39.10
2017-08-30T13:18:58.977Z,39.60
2017-08-30T13:21:26.521Z,38.60
2017-08-30T13:23:54.042Z,38.80
2017-08-30T13:26:21.587Z,38.40
2017-08-30T13:28:49.241Z,37.40
2017-08-30T13:31:17.519Z,36.70
2017-08-30T13:33:45.043Z,35.80
2017-08-30T13:36:12.576Z,36.10
2017-08-30T13:38:40.093Z,35.80
2017-08-30T13:41:07.591Z,36.20
2017-08-30T13:43:35.903Z,38.00
2017-08-30T13:46:03.421Z,38.00
2017-08-30T13:48:30.923Z,38.20
2017-08-30T13:50:58.464Z,37.90
2017-08-30T13:53:26.948Z,37.40
2017-08-30T13:55:54.462Z,37.40
2017-08-30T13:58:22.011Z,37.60
2017-08-30T14:00:49.539Z,37.90
2017-08-30T14:03:17.047Z,37.90
2017-08-30T14:05:44.593Z,37.90
2017-08-30T14:08:12.134Z,38.30
2017-08-30T14:10:39.647Z,38.80
2017-08-30T14:13:07.184Z,38.40
2017-08-30T14:15:34.710Z,37.80
2017-08-30T14:18:02.213Z,37.40
2017-08-30T14:20:29.825Z,35.60
2017-08-30T14:22:57.347Z,35.10
2017-08-30T14:25:24.943Z,34.40
2017-08-30T14:27:52.480Z,33.50
2017-08-30T14:30:20.009Z,33.60
2017-08-30T14:32:47.522Z,34.20
2017-08-30T14:35:15.051Z,34.10
2017-08-30T14:37:43.320Z,35.40
2017-08-30T14:40:10.838Z,35.40
2017-08-30T14:42:38.388Z,36.40
2017-08-30T14:45:05.914Z,37.00
2017-08-30T14:47:34.305Z,36.70
2017-08-30T14:50:01.861Z,37.20
2017-08-30T14:52:29.386Z,37.80
2017-08-30T14:54:56.901Z,37.50
2017-08-30T14:57:24.440Z,35.90
2017-08-30T14:59:51.959Z,34.90
2017-08-30T15:02:20.228Z,35.40
2017-08-30T15:04:47.760Z,35.40
2017-08-30T15:07:15.294Z,35.40
2017-08-30T15:09:42.796Z,35.60
2017-08-30T15:12:10.346Z,36.20
2017-08-30T15:14:37.847Z,35.60
2017-08-30T15:17:05.361Z,34.50
2017-08-30T15:19:32.911Z,33.40
2017-08-30T15:22:00.415Z,33.10
2017-08-30T15:24:27.914Z,32.60
2017-08-30T15:26:55.755Z,32.20
2017-08-30T15:29:23.255Z,31.80
2017-08-30T15:31:50.769Z,31.50
2017-08-30T15:34:18.303Z,31.10
2017-08-30T15:36:46.590Z,30.60
2017-08-30T15:39:14.114Z,30.60
2017-08-30T15:41:41.653Z,30.50
2017-08-30T15:44:09.192Z,30.20
2017-08-30T15:46:36.710Z,30.10
2017-08-30T15:49:04.263Z,29.80
2017-08-30T15:51:31.756Z,29.80
2017-08-30T15:53:59.259Z,29.80
2017-08-30T15:56:26.810Z,29.70
2017-08-30T15:58:54.342Z,29.60
2017-08-30T16:01:21.857Z,29.50
2017-08-30T16:03:49.396Z,29.40
2017-08-30T16:06:16.904Z,29.30
2017-08-30T16:08:44.429Z,29.10
2017-08-30T16:11:11.964Z,28.90
2017-08-30T16:13:39.588Z,28.80
2017-08-30T16:16:07.094Z,28.70
2017-08-30T16:18:34.635Z,28.60
2017-08-30T16:21:02.136Z,28.50
2017-08-30T16:23:29.732Z,28.30
2017-08-30T16:25:57.263Z,28.20
2017-08-30T16:28:24.772Z,28.20
2017-08-30T16:30:52.272Z,28.10
2017-08-30T16:33:19.866Z,28.10
2017-08-30T16:35:47.368Z,28.00
2017-08-30T16:38:14.926Z,28.00
2017-08-30T16:40:42.455Z,27.90
2017-08-30T16:43:09.957Z,27.80
2017-08-30T16:45:37.473Z,27.80
2017-08-30T16:48:05.026Z,27.60
2017-08-30T16:50:32.544Z,27.50
2017-08-30T16:53:00.825Z,27.40
2017-08-30T16:55:28.374Z,27.40
2017-08-30T16:57:56.664Z,27.20
2017-08-30T17:00:24.544Z,27.20
2017-08-30T17:02:52.071Z,26.90
2017-08-30T17:05:20.358Z,26.70
2017-08-30T17:07:48.642Z,26.60
2017-08-30T17:10:16.224Z,26.60
2017-08-30T17:12:43.742Z,26.50
2017-08-30T17:15:11.279Z,26.40
2017-08-30T17:17:38.826Z,26.30
2017-08-30T17:20:06.331Z,26.30
2017-08-30T17:22:34.635Z,25.60
2017-08-30T17:25:02.178Z,25.60
2017-08-30T17:27:29.703Z,25.50
2017-08-30T17:29:57.226Z,25.10
2017-08-30T17:32:24.794Z,24.70
2017-08-30T17:34:52.328Z,24.70
2017-08-30T17:37:19.849Z,24.30
2017-08-30T17:39:48.166Z,23.50
2017-08-30T17:42:15.685Z,23.50
2017-08-30T17:44:43.972Z,22.30
2017-08-30T17:47:11.503Z,22.30
2017-08-30T17:49:39.018Z,21.90
2017-08-30T17:52:06.575Z,21.70
2017-08-30T17:54:34.105Z,21.60
2017-08-30T17:57:01.622Z,21.60
2017-08-30T17:59:29.142Z,21.50
2017-08-30T18:01:56.686Z,21.60
2017-08-30T18:04:24.207Z,21.60
2017-08-30T18:06:51.725Z,21.70
2017-08-30T18:09:19.256Z,21.70
2017-08-30T18:11:46.770Z,21.60
2017-08-30T18:14:14.300Z,21.60
2017-08-30T18:16:41.823Z,21.60
2017-08-30T18:19:09.350Z,21.60
2017-08-30T18:21:36.862Z,21.60
2017-08-30T18:24:04.436Z,21.60
2017-08-30T18:26:31.935Z,21.50
2017-08-30T18:28:59.483Z,21.50
2017-08-30T18:31:27.010Z,21.50
2017-08-30T18:33:54.550Z,21.50
2017-08-30T18:36:22.815Z,21.60
2017-08-30T18:38:51.121Z,21.60
2017-08-30T18:41:18.620Z,21.60
2017-08-30T18:43:46.146Z,21.60
2017-08-30T18:46:13.647Z,21.60
2017-08-30T18:48:41.189Z,21.60
2017-08-30T18:51:08.688Z,21.50
2017-08-30T18:53:36.586Z,21.50
2017-08-30T18:56:04.870Z,21.40
2017-08-30T18:58:32.376Z,21.40
2017-08-30T19:00:59.916Z,21.30
2017-08-30T19:03:27.434Z,21.20
2017-08-30T19:05:54.985Z,21.10
2017-08-30T19:08:22.497Z,21.10
2017-08-30T19:10:50.015Z,21.10
2017-08-30T19:13:17.562Z,21.10
2017-08-30T19:15:45.064Z,21.10
2017-08-30T19:18:12.606Z,21.20
2017-08-30T19:20:40.107Z,21.20
2017-08-30T19:23:07.654Z,21.20
2017-08-30T19:25:35.167Z,21.30
2017-08-30T19:28:02.690Z,21.30
2017-08-30T19:30:30.247Z,21.40
2017-08-30T19:32:57.767Z,21.30
2017-08-30T19:35:25.273Z,21.40
2017-08-30T19:37:52.817Z,21.40
2017-08-30T19:40:20.337Z,21.40
2017-08-30T19:42:47.849Z,21.40
2017-08-30T19:45:15.380Z,21.30
2017-08-30T19:47:42.898Z,21.20
2017-08-30T19:50:10.419Z,21.20
2017-08-30T19:52:37.978Z,21.10
2017-08-30T19:55:05.480Z,21.10
2017-08-30T19:57:32.988Z,21.10
2017-08-30T20:00:01.289Z,21.00
2017-08-30T20:02:28.794Z,21.00
2017-08-30T20:04:56.412Z,21.00
2017-08-30T20:07:23.967Z,21.00
2017-08-30T20:09:51.504Z,21.10
2017-08-30T20:12:19.018Z,21.10
2017-08-30T20:14:46.548Z,21.20
2017-08-30T20:17:14.102Z,21.20
2017-08-30T20:19:41.632Z,21.20
2017-08-30T20:22:09.160Z,21.10
2017-08-30T20:24:36.687Z,21.00
2017-08-30T20:27:04.196Z,21.00
2017-08-30T20:29:31.735Z,21.00
2017-08-30T20:31:59.263Z,21.00
2017-08-30T20:34:27.551Z,21.00
2017-08-30T20:36:55.084Z,21.00
2017-08-30T20:39:22.647Z,21.00
2017-08-30T20:41:50.164Z,21.00
2017-08-30T20:44:18.478Z,21.10
2017-08-30T20:46:46.049Z,21.10
2017-08-30T20:49:13.569Z,21.10
2017-08-30T20:51:41.160Z,21.20
2017-08-30T20:54:08.660Z,21.30
2017-08-30T20:56:36.193Z,21.40
2017-08-30T20:59:03.696Z,21.00
2017-08-30T21:01:31.996Z,20.50
2017-08-30T21:03:59.533Z,20.50
2017-08-30T21:06:27.054Z,20.40
2017-08-30T21:08:54.689Z,20.30
2017-08-30T21:11:22.192Z,20.20
2017-08-30T21:13:49.809Z,20.00
2017-08-30T21:16:17.359Z,19.90
2017-08-30T21:18:44.891Z,19.80
2017-08-30T21:21:12.392Z,19.80
2017-08-30T21:23:39.946Z,19.80
2017-08-30T21:26:07.468Z,19.80
2017-08-30T21:28:34.990Z,19.70
2017-08-30T21:31:02.547Z,19.70
2017-08-30T21:33:30.068Z,19.70
2017-08-30T21:35:57.578Z,19.70
2017-08-30T21:38:25.126Z,19.70
2017-08-30T21:40:52.627Z,19.60
2017-08-30T21:43:20.159Z,19.60
2017-08-30T21:45:47.659Z,19.60
2017-08-30T21:48:15.174Z,19.60
2017-08-30T21:50:42.704Z,19.60
2017-08-30T21:53:10.991Z,19.60
2017-08-30T21:55:38.564Z,19.60
2017-08-30T21:58:06.100Z,19.50
2017-08-30T22:00:33.603Z,19.50
2017-08-30T22:03:01.117Z,19.50
2017-08-30T22:05:28.648Z,19.50
2017-08-30T22:07:56.167Z,19.40
2017-08-30T22:10:23.687Z,19.30
2017-08-30T22:12:52.001Z,19.20
2017-08-30T22:15:20.273Z,19.10
2017-08-30T22:17:47.775Z,19.10
2017-08-30T22:20:15.304Z,19.10
2017-08-30T22:22:42.807Z,19.00
2017-08-30T22:25:10.316Z,19.10
2017-08-30T22:27:37.867Z,19.10
2017-08-30T22:30:05.369Z,19.00
2017-08-30T22:32:32.891Z,19.00
2017-08-30T22:35:00.445Z,19.00
2017-08-30T22:37:27.949Z,19.00
2017-08-30T22:39:55.489Z,19.10
2017-08-30T22:42:23.014Z,19.10
2017-08-30T22:44:50.511Z,19.10
2017-08-30T22:47:18.045Z,19.10
2017-08-30T22:49:45.562Z,19.10
2017-08-30T22:52:13.112Z,19.10
2017-08-30T22:54:41.384Z,19.10
2017-08-30T22:57:08.891Z,19.10
2017-08-30T22:59:36.438Z,19.10
2017-08-30T23:02:03.948Z,19.10
2017-08-30T23:04:31.451Z,19.10
2017-08-30T23:06:58.983Z,19.10
2017-08-30T23:09:26.484Z,19.10
2017-08-30T23:11:54.010Z,19.10
2017-08-30T23:14:21.535Z,19.10
2017-08-30T23:16:49.040Z,19.10
2017-08-30T23:19:16.566Z,19.00
2017-08-30T23:21:44.122Z,19.00
2017-08-30T23:24:12.435Z,19.00
2017-08-30T23:26:39.945Z,19.00
2017-08-30T23:29:07.495Z,18.90
2017-08-30T23:31:34.997Z,18.90
2017-08-30T23:34:02.517Z,18.80
2017-08-30T23:36:30.126Z,18.70
2017-08-30T23:38:57.657Z,18.60
2017-08-30T23:41:25.160Z,18.50
2017-08-30T23:43:52.696Z,18.50
2017-08-30T23:46:20.195Z,18.50
2017-08-30T23:48:47.714Z,18.50
2017-08-30T23:51:15.265Z,18.50
2017-08-30T23:53:42.782Z,18.60
2017-08-30T23:56:10.294Z,18.60
2017-08-30T23:58:37.848Z,18.60
